FIN46J LPPT-EKCH
Flight info
| Callsign | FIN46J |
|---|---|
| Flight time | N/A |
| Altitude | 36000 |
| Route | IXID1N IXIDA DCT TOSDI DCT ZMR DCT NUBLO DCT RONSI DCT DELOG DCT DIDIG DCT USODA DCT ERCUT DCT DITAL UN873 BAZOS DCT BELDI DCT VEKIN DCT ADUTO N873 VICOT DCT SUSET DCT DOSUR P729 TUDLO TUDL4C |
| Aircraft | A321/M-SDE3FGHIRWY/LB1 |
Departure
| Time | 2026-05-04 13:27 |
|---|---|
| Airport | Lisbon Humberto Delgado Airport (LPPT) |
Arrival
| Time | N/A |
|---|---|
| Airport | Copenhagen Kastrup Airport (EKCH) |
| Time | Latitude | Longitude | Altitude | Speed | Heading |
|---|---|---|---|---|---|
| 2026-05-04 13:07 | 38.76760 | -9.13014 | 334 ft | 0 kts | 78° |
| 2026-05-04 13:17 | 38.76757 | -9.13032 | 333 ft | 3 kts | 78° |
| 2026-05-04 13:17 | 38.76754 | -9.13056 | 333 ft | 3 kts | 56° |
| 2026-05-04 13:18 | 38.76741 | -9.13072 | 333 ft | 3 kts | 33° |
| 2026-05-04 13:18 | 38.76725 | -9.13085 | 332 ft | 3 kts | 33° |
| 2026-05-04 13:18 | 38.76709 | -9.13091 | 333 ft | 2 kts | 349° |
| 2026-05-04 13:18 | 38.76702 | -9.13090 | 333 ft | 0 kts | 348° |
| 2026-05-04 13:21 | 38.76715 | -9.13093 | 333 ft | 3 kts | 348° |
| 2026-05-04 13:21 | 38.76745 | -9.13102 | 334 ft | 5 kts | 348° |
| 2026-05-04 13:21 | 38.76777 | -9.13127 | 335 ft | 6 kts | 306° |
| 2026-05-04 13:22 | 38.76777 | -9.13192 | 339 ft | 9 kts | 258° |
| 2026-05-04 13:22 | 38.76762 | -9.13286 | 353 ft | 12 kts | 258° |
| 2026-05-04 13:22 | 38.76732 | -9.13387 | 346 ft | 12 kts | 231° |
| 2026-05-04 13:22 | 38.76669 | -9.13454 | 347 ft | 12 kts | 227° |
| 2026-05-04 13:23 | 38.76644 | -9.13550 | 354 ft | 12 kts | 257° |
| 2026-05-04 13:23 | 38.76626 | -9.13657 | 352 ft | 12 kts | 258° |
| 2026-05-04 13:23 | 38.76608 | -9.13768 | 348 ft | 13 kts | 258° |
| 2026-05-04 13:23 | 38.76589 | -9.13885 | 346 ft | 14 kts | 258° |
| 2026-05-04 13:24 | 38.76559 | -9.14006 | 350 ft | 14 kts | 237° |
| 2026-05-04 13:24 | 38.76502 | -9.14108 | 348 ft | 14 kts | 246° |
| 2026-05-04 13:24 | 38.76506 | -9.14207 | 350 ft | 9 kts | 291° |
| 2026-05-04 13:25 | 38.76536 | -9.14298 | 336 ft | 0 kts | 292° |
| 2026-05-04 13:25 | 38.76540 | -9.14313 | 335 ft | 5 kts | 292° |
| 2026-05-04 13:26 | 38.76553 | -9.14352 | 334 ft | 9 kts | 293° |
| 2026-05-04 13:26 | 38.76593 | -9.14415 | 336 ft | 5 kts | 4° |
| 2026-05-04 13:26 | 38.76608 | -9.14408 | 334 ft | 0 kts | 22° |
| 2026-05-04 13:26 | 38.76644 | -9.14389 | 335 ft | 24 kts | 22° |
| 2026-05-04 13:27 | 38.77029 | -9.14185 | 353 ft | 93 kts | 23° |
| 2026-05-04 13:27 | 38.77810 | -9.13769 | 363 ft | 148 kts | 22° |
| 2026-05-04 13:27 | 38.78877 | -9.13174 | 570 ft | 175 kts | 19° |
| 2026-05-04 13:27 | 38.79615 | -9.12767 | 1041 ft | 173 kts | 18° |
| 2026-05-04 13:28 | 38.80722 | -9.12186 | 1793 ft | 173 kts | 16° |
| 2026-05-04 13:28 | 38.81861 | -9.11540 | 2109 ft | 189 kts | 26° |
| 2026-05-04 13:28 | 38.83020 | -9.10615 | 2371 ft | 203 kts | 28° |
| 2026-05-04 13:28 | 38.84287 | -9.09622 | 2563 ft | 224 kts | 26° |
| 2026-05-04 13:29 | 38.85709 | -9.08545 | 2849 ft | 248 kts | 27° |
| 2026-05-04 13:29 | 38.87218 | -9.07393 | 3514 ft | 255 kts | 28° |
| 2026-05-04 13:29 | 38.88723 | -9.06223 | 4297 ft | 257 kts | 28° |
| 2026-05-04 13:29 | 38.90186 | -9.04862 | 4993 ft | 265 kts | 40° |
| 2026-05-04 13:30 | 38.91553 | -9.03251 | 5701 ft | 268 kts | 39° |
| 2026-05-04 13:30 | 38.92939 | -9.01626 | 6384 ft | 272 kts | 39° |
| 2026-05-04 13:30 | 38.94350 | -8.99981 | 7071 ft | 276 kts | 39° |
| 2026-05-04 13:30 | 38.95781 | -8.98313 | 7762 ft | 279 kts | 38° |
| 2026-05-04 13:31 | 38.97225 | -8.96627 | 8473 ft | 282 kts | 39° |
| 2026-05-04 13:31 | 38.98685 | -8.94923 | 9186 ft | 285 kts | 39° |
| 2026-05-04 13:31 | 39.00161 | -8.93198 | 9862 ft | 289 kts | 39° |
| 2026-05-04 13:31 | 39.01662 | -8.91442 | 10409 ft | 297 kts | 39° |
| 2026-05-04 13:32 | 39.03229 | -8.89613 | 10549 ft | 320 kts | 39° |
| 2026-05-04 13:32 | 39.04932 | -8.87630 | 10676 ft | 341 kts | 39° |
| 2026-05-04 13:32 | 39.06743 | -8.85521 | 10799 ft | 361 kts | 39° |
| 2026-05-04 13:32 | 39.08648 | -8.83294 | 11037 ft | 376 kts | 39° |
| 2026-05-04 13:33 | 39.10595 | -8.81007 | 11544 ft | 382 kts | 39° |
| 2026-05-04 13:33 | 39.12565 | -8.78684 | 12095 ft | 387 kts | 39° |
| 2026-05-04 13:33 | 39.14560 | -8.76330 | 12640 ft | 392 kts | 39° |
| 2026-05-04 13:33 | 39.16574 | -8.73936 | 13185 ft | 397 kts | 41° |
| 2026-05-04 13:34 | 39.18457 | -8.71280 | 13747 ft | 404 kts | 45° |
| 2026-05-04 13:34 | 39.20326 | -8.68550 | 14246 ft | 409 kts | 46° |
| 2026-05-04 13:34 | 39.22187 | -8.65819 | 14763 ft | 413 kts | 46° |
| 2026-05-04 13:34 | 39.24087 | -8.63022 | 15287 ft | 417 kts | 46° |
| 2026-05-04 13:35 | 39.26007 | -8.60195 | 15839 ft | 420 kts | 46° |
| 2026-05-04 13:35 | 39.29901 | -8.54476 | 16925 ft | 428 kts | 46° |
| 2026-05-04 13:35 | 39.31877 | -8.51576 | 17448 ft | 432 kts | 46° |
| 2026-05-04 13:36 | 39.33870 | -8.48649 | 17963 ft | 436 kts | 46° |
| 2026-05-04 13:36 | 39.35881 | -8.45690 | 18461 ft | 440 kts | 46° |
| 2026-05-04 13:36 | 39.37876 | -8.42748 | 18883 ft | 443 kts | 46° |
| 2026-05-04 13:36 | 39.39910 | -8.39743 | 19323 ft | 446 kts | 46° |
| 2026-05-04 13:37 | 39.41955 | -8.36717 | 19760 ft | 449 kts | 45° |
| 2026-05-04 13:37 | 39.44017 | -8.33666 | 20197 ft | 451 kts | 45° |
| 2026-05-04 13:37 | 39.46086 | -8.30600 | 20646 ft | 454 kts | 45° |
| 2026-05-04 13:37 | 39.48180 | -8.27529 | 21071 ft | 456 kts | 44° |
| 2026-05-04 13:38 | 39.50365 | -8.24545 | 21502 ft | 457 kts | 42° |
| 2026-05-04 13:38 | 39.52629 | -8.21642 | 21930 ft | 459 kts | 40° |
| 2026-05-04 13:38 | 39.54943 | -8.18774 | 22325 ft | 462 kts | 39° |
| 2026-05-04 13:38 | 39.57251 | -8.15941 | 22715 ft | 465 kts | 40° |
| 2026-05-04 13:39 | 39.59600 | -8.13035 | 23119 ft | 468 kts | 40° |
| 2026-05-04 13:39 | 39.61943 | -8.10093 | 23517 ft | 470 kts | 40° |
| 2026-05-04 13:39 | 39.64282 | -8.07108 | 23864 ft | 473 kts | 41° |
| 2026-05-04 13:39 | 39.66626 | -8.04084 | 24183 ft | 476 kts | 41° |
| 2026-05-04 13:40 | 39.68973 | -8.01040 | 24501 ft | 478 kts | 41° |
| 2026-05-04 13:40 | 39.71332 | -7.97981 | 24823 ft | 481 kts | 41° |
| 2026-05-04 13:40 | 39.73706 | -7.94910 | 25133 ft | 483 kts | 41° |
| 2026-05-04 13:40 | 39.76094 | -7.91829 | 25466 ft | 485 kts | 40° |
| 2026-05-04 13:41 | 39.78500 | -7.88730 | 25752 ft | 488 kts | 40° |
| 2026-05-04 13:41 | 39.80884 | -7.85662 | 26026 ft | 490 kts | 40° |
| 2026-05-04 13:41 | 39.83310 | -7.82535 | 26343 ft | 492 kts | 40° |
| 2026-05-04 13:42 | 39.88192 | -7.76222 | 26927 ft | 497 kts | 40° |
| 2026-05-04 13:42 | 39.90647 | -7.73038 | 27307 ft | 497 kts | 40° |
| 2026-05-04 13:42 | 39.93093 | -7.69859 | 27749 ft | 497 kts | 40° |
| 2026-05-04 13:42 | 39.95536 | -7.66680 | 28167 ft | 496 kts | 40° |
| 2026-05-04 13:43 | 39.97942 | -7.63548 | 28578 ft | 495 kts | 40° |
| 2026-05-04 13:43 | 40.00378 | -7.60376 | 28992 ft | 495 kts | 40° |
| 2026-05-04 13:43 | 40.02810 | -7.57201 | 29418 ft | 495 kts | 41° |
| 2026-05-04 13:43 | 40.05243 | -7.54017 | 29820 ft | 495 kts | 41° |
| 2026-05-04 13:44 | 40.07673 | -7.50838 | 30212 ft | 495 kts | 41° |
| 2026-05-04 13:44 | 40.10103 | -7.47661 | 30548 ft | 494 kts | 40° |
| 2026-05-04 13:44 | 40.12533 | -7.44486 | 30860 ft | 494 kts | 40° |
| 2026-05-04 13:44 | 40.14960 | -7.41313 | 31189 ft | 494 kts | 40° |
| 2026-05-04 13:45 | 40.17357 | -7.38178 | 31516 ft | 493 kts | 40° |
| 2026-05-04 13:45 | 40.19778 | -7.35002 | 31839 ft | 493 kts | 40° |
| 2026-05-04 13:45 | 40.22194 | -7.31822 | 32162 ft | 493 kts | 40° |
| 2026-05-04 13:45 | 40.24609 | -7.28641 | 32478 ft | 493 kts | 40° |
| 2026-05-04 13:46 | 40.27027 | -7.25452 | 32788 ft | 493 kts | 40° |
| 2026-05-04 13:46 | 40.29440 | -7.22266 | 33083 ft | 493 kts | 40° |
| 2026-05-04 13:46 | 40.31855 | -7.19079 | 33372 ft | 493 kts | 41° |
| 2026-05-04 13:46 | 40.34270 | -7.15887 | 33659 ft | 493 kts | 41° |
| 2026-05-04 13:47 | 40.36683 | -7.12691 | 33959 ft | 493 kts | 41° |
| 2026-05-04 13:47 | 40.39098 | -7.09488 | 34202 ft | 493 kts | 41° |
| 2026-05-04 13:47 | 40.41507 | -7.06287 | 34419 ft | 493 kts | 41° |
| 2026-05-04 13:47 | 40.43884 | -7.03126 | 34653 ft | 493 kts | 41° |
| 2026-05-04 13:48 | 40.46294 | -6.99923 | 34886 ft | 493 kts | 41° |
| 2026-05-04 13:48 | 40.48707 | -6.96714 | 35109 ft | 493 kts | 41° |
| 2026-05-04 13:48 | 40.51115 | -6.93509 | 35334 ft | 493 kts | 41° |
| 2026-05-04 13:48 | 40.53522 | -6.90302 | 35567 ft | 493 kts | 41° |
| 2026-05-04 13:49 | 40.55928 | -6.87092 | 35794 ft | 493 kts | 41° |
| 2026-05-04 13:49 | 40.58333 | -6.83875 | 35971 ft | 494 kts | 41° |
| 2026-05-04 13:49 | 40.63165 | -6.77399 | 35994 ft | 496 kts | 41° |
| 2026-05-04 13:50 | 40.67971 | -6.70950 | 35994 ft | 497 kts | 41° |
| 2026-05-04 13:50 | 40.72805 | -6.64449 | 36002 ft | 497 kts | 41° |
| 2026-05-04 13:51 | 40.77644 | -6.57928 | 35989 ft | 498 kts | 41° |
| 2026-05-04 13:51 | 40.82482 | -6.51397 | 35994 ft | 498 kts | 41° |
| 2026-05-04 13:52 | 40.89715 | -6.41611 | 36003 ft | 499 kts | 42° |
| 2026-05-04 13:53 | 40.94561 | -6.35028 | 36005 ft | 499 kts | 42° |
| 2026-05-04 13:53 | 40.99407 | -6.28441 | 36030 ft | 499 kts | 41° |
| 2026-05-04 13:54 | 41.07048 | -6.19133 | 36017 ft | 497 kts | 37° |
| 2026-05-04 13:55 | 41.14826 | -6.10137 | 36007 ft | 497 kts | 38° |
| 2026-05-04 13:55 | 41.22514 | -6.00892 | 36014 ft | 497 kts | 39° |
| 2026-05-04 13:56 | 41.27624 | -5.94700 | 36009 ft | 497 kts | 39° |
| 2026-05-04 13:57 | 41.35298 | -5.85448 | 35999 ft | 496 kts | 39° |
| 2026-05-04 13:58 | 41.45480 | -5.73172 | 36003 ft | 494 kts | 37° |
| 2026-05-04 13:58 | 41.51340 | -5.68721 | 35997 ft | 483 kts | 20° |
| 2026-05-04 13:58 | 41.54408 | -5.66890 | 35995 ft | 483 kts | 20° |
| 2026-05-04 13:59 | 41.60561 | -5.63236 | 35995 ft | 484 kts | 19° |
| 2026-05-04 14:00 | 41.69789 | -5.57745 | 36008 ft | 484 kts | 20° |
| 2026-05-04 14:00 | 41.78969 | -5.52246 | 36000 ft | 484 kts | 20° |
| 2026-05-04 14:01 | 41.85114 | -5.48563 | 36001 ft | 484 kts | 20° |
| 2026-05-04 14:02 | 41.94295 | -5.43037 | 36010 ft | 484 kts | 20° |
| 2026-05-04 14:02 | 42.00442 | -5.39326 | 36012 ft | 485 kts | 20° |
| 2026-05-04 14:03 | 42.06597 | -5.35612 | 36002 ft | 485 kts | 20° |
| 2026-05-04 14:03 | 42.12745 | -5.31887 | 36015 ft | 485 kts | 21° |
| 2026-05-04 14:04 | 42.21927 | -5.26294 | 36000 ft | 485 kts | 21° |
| 2026-05-04 14:04 | 42.28084 | -5.22551 | 36001 ft | 485 kts | 21° |
| 2026-05-04 14:05 | 42.37313 | -5.16916 | 36004 ft | 486 kts | 21° |
| 2026-05-04 14:06 | 42.43427 | -5.13167 | 35990 ft | 485 kts | 21° |
| 2026-05-04 14:06 | 42.49578 | -5.09392 | 35994 ft | 486 kts | 21° |
| 2026-05-04 14:07 | 42.55732 | -5.05614 | 36004 ft | 486 kts | 21° |
| 2026-05-04 14:07 | 42.61887 | -5.01816 | 35999 ft | 486 kts | 22° |
| 2026-05-04 14:08 | 42.68037 | -4.98013 | 36000 ft | 486 kts | 21° |
| 2026-05-04 14:08 | 42.74193 | -4.94366 | 35990 ft | 486 kts | 20° |
| 2026-05-04 14:09 | 42.83519 | -4.88978 | 35996 ft | 486 kts | 20° |
| 2026-05-04 14:10 | 42.92843 | -4.83512 | 36024 ft | 486 kts | 21° |
| 2026-05-04 14:10 | 42.99015 | -4.79856 | 36019 ft | 486 kts | 21° |
| 2026-05-04 14:11 | 43.05217 | -4.76168 | 36021 ft | 486 kts | 21° |
| 2026-05-04 14:11 | 43.14525 | -4.70638 | 36054 ft | 486 kts | 21° |
| 2026-05-04 14:12 | 43.20734 | -4.66953 | 36058 ft | 487 kts | 21° |
| 2026-05-04 14:13 | 43.30001 | -4.61425 | 36053 ft | 486 kts | 21° |
| 2026-05-04 14:13 | 43.36185 | -4.57716 | 36063 ft | 485 kts | 21° |
| 2026-05-04 14:14 | 43.42370 | -4.54010 | 36043 ft | 485 kts | 21° |
| 2026-05-04 14:14 | 43.51648 | -4.48440 | 36045 ft | 485 kts | 21° |
| 2026-05-04 14:15 | 43.63972 | -4.40994 | 36047 ft | 485 kts | 22° |
| 2026-05-04 14:16 | 43.73243 | -4.35381 | 36041 ft | 485 kts | 22° |
| 2026-05-04 14:17 | 43.82475 | -4.29755 | 36042 ft | 485 kts | 22° |
| 2026-05-04 14:18 | 43.91742 | -4.24098 | 36037 ft | 485 kts | 22° |
| 2026-05-04 14:19 | 44.04059 | -4.16559 | 36035 ft | 485 kts | 22° |
| 2026-05-04 14:19 | 44.10225 | -4.12771 | 36033 ft | 484 kts | 22° |
| 2026-05-04 14:20 | 44.16385 | -4.08977 | 36040 ft | 484 kts | 23° |
| 2026-05-04 14:20 | 44.22546 | -4.05172 | 36033 ft | 484 kts | 23° |
| 2026-05-04 14:21 | 44.31771 | -3.99426 | 36027 ft | 484 kts | 26° |
| 2026-05-04 14:21 | 44.37386 | -3.94368 | 36029 ft | 484 kts | 34° |
| 2026-05-04 14:22 | 44.42911 | -3.88979 | 36023 ft | 484 kts | 34° |
| 2026-05-04 14:22 | 44.48449 | -3.83593 | 36023 ft | 485 kts | 34° |
| 2026-05-04 14:23 | 44.56710 | -3.75518 | 36025 ft | 485 kts | 35° |
| 2026-05-04 14:24 | 44.62231 | -3.70092 | 36026 ft | 485 kts | 35° |
| 2026-05-04 14:24 | 44.67749 | -3.64650 | 36023 ft | 484 kts | 35° |
| 2026-05-04 14:25 | 44.73259 | -3.59212 | 36019 ft | 484 kts | 35° |
| 2026-05-04 14:25 | 44.81487 | -3.51081 | 36017 ft | 484 kts | 35° |
| 2026-05-04 14:26 | 44.86982 | -3.45621 | 36013 ft | 483 kts | 35° |
| 2026-05-04 14:26 | 44.92479 | -3.40148 | 35999 ft | 483 kts | 35° |
| 2026-05-04 14:27 | 44.97973 | -3.34672 | 36006 ft | 484 kts | 36° |
| 2026-05-04 14:27 | 45.03429 | -3.29207 | 36009 ft | 484 kts | 36° |
| 2026-05-04 14:28 | 45.08926 | -3.23714 | 36014 ft | 484 kts | 35° |
| 2026-05-04 14:28 | 45.14419 | -3.18199 | 36010 ft | 484 kts | 36° |
| 2026-05-04 14:29 | 45.25387 | -3.07120 | 35996 ft | 484 kts | 36° |
| 2026-05-04 14:30 | 45.30831 | -3.01602 | 36000 ft | 484 kts | 36° |
| 2026-05-04 14:31 | 45.39056 | -2.93281 | 36009 ft | 484 kts | 36° |
| 2026-05-04 14:32 | 45.49957 | -2.82158 | 36004 ft | 483 kts | 36° |
| 2026-05-04 14:32 | 45.55428 | -2.76580 | 36008 ft | 483 kts | 36° |
| 2026-05-04 14:33 | 45.60881 | -2.70980 | 35986 ft | 483 kts | 37° |
| 2026-05-04 14:33 | 45.66333 | -2.65348 | 35986 ft | 484 kts | 37° |
| 2026-05-04 14:34 | 45.71793 | -2.59719 | 35984 ft | 484 kts | 37° |
| 2026-05-04 14:34 | 45.77228 | -2.54118 | 35992 ft | 485 kts | 37° |
| 2026-05-04 14:35 | 45.82694 | -2.48467 | 35992 ft | 485 kts | 37° |
| 2026-05-04 14:35 | 45.88163 | -2.42795 | 35993 ft | 485 kts | 37° |
| 2026-05-04 14:36 | 45.93622 | -2.37105 | 35994 ft | 485 kts | 37° |
| 2026-05-04 14:36 | 45.99079 | -2.31403 | 35980 ft | 485 kts | 37° |
| 2026-05-04 14:37 | 46.04507 | -2.25720 | 35983 ft | 486 kts | 37° |
| 2026-05-04 14:37 | 46.10064 | -2.20178 | 35983 ft | 486 kts | 34° |
| 2026-05-04 14:38 | 46.15766 | -2.14912 | 35986 ft | 487 kts | 33° |
| 2026-05-04 14:38 | 46.21466 | -2.09660 | 35991 ft | 486 kts | 34° |
| 2026-05-04 14:39 | 46.27079 | -2.04343 | 35992 ft | 485 kts | 34° |
| 2026-05-04 14:39 | 46.32698 | -1.98947 | 35975 ft | 485 kts | 34° |
| 2026-05-04 14:40 | 46.41137 | -1.90861 | 35986 ft | 485 kts | 34° |
| 2026-05-04 14:40 | 46.46725 | -1.85516 | 35988 ft | 484 kts | 34° |
| 2026-05-04 14:41 | 46.52349 | -1.80118 | 35984 ft | 484 kts | 34° |
| 2026-05-04 14:42 | 46.63561 | -1.69278 | 35996 ft | 483 kts | 34° |
| 2026-05-04 14:42 | 46.69119 | -1.63901 | 35998 ft | 483 kts | 34° |
| 2026-05-04 14:43 | 46.74706 | -1.58482 | 35989 ft | 483 kts | 35° |
| 2026-05-04 14:43 | 46.80293 | -1.53040 | 35992 ft | 483 kts | 35° |
| 2026-05-04 14:44 | 46.85877 | -1.47591 | 35993 ft | 483 kts | 35° |
| 2026-05-04 14:44 | 46.91466 | -1.42129 | 35990 ft | 483 kts | 35° |
| 2026-05-04 14:45 | 46.96921 | -1.36519 | 35981 ft | 482 kts | 43° |
| 2026-05-04 14:45 | 47.01533 | -1.29467 | 35985 ft | 479 kts | 50° |
| 2026-05-04 14:46 | 47.05975 | -1.22196 | 35959 ft | 479 kts | 50° |
| 2026-05-04 14:46 | 47.10421 | -1.14908 | 35961 ft | 480 kts | 50° |
| 2026-05-04 14:47 | 47.14850 | -1.07642 | 35968 ft | 481 kts | 50° |
| 2026-05-04 14:47 | 47.19303 | -1.00309 | 35979 ft | 481 kts | 50° |
| 2026-05-04 14:48 | 47.23758 | -0.92959 | 35982 ft | 481 kts | 50° |
| 2026-05-04 14:48 | 47.28202 | -0.85593 | 35982 ft | 481 kts | 50° |
| 2026-05-04 14:49 | 47.32606 | -0.78265 | 35957 ft | 481 kts | 50° |
| 2026-05-04 14:49 | 47.37050 | -0.70865 | 35960 ft | 483 kts | 50° |
| 2026-05-04 14:50 | 47.41508 | -0.63445 | 35983 ft | 484 kts | 50° |
| 2026-05-04 14:50 | 47.46389 | -0.56606 | 35989 ft | 486 kts | 38° |
| 2026-05-04 14:51 | 47.51819 | -0.50638 | 36006 ft | 486 kts | 38° |
| 2026-05-04 14:51 | 47.57220 | -0.44699 | 35999 ft | 487 kts | 38° |
| 2026-05-04 14:52 | 47.62645 | -0.38688 | 35998 ft | 487 kts | 38° |
| 2026-05-04 14:52 | 47.68054 | -0.32662 | 35987 ft | 486 kts | 38° |
| 2026-05-04 14:53 | 47.73461 | -0.26639 | 35984 ft | 486 kts | 38° |
| 2026-05-04 14:53 | 47.78879 | -0.20595 | 35986 ft | 487 kts | 38° |
| 2026-05-04 14:54 | 47.84253 | -0.14582 | 35981 ft | 487 kts | 38° |